createdAt,value
2017-02-15T00:00:27.182Z,0
2017-02-15T00:01:08.885Z,0
2017-02-15T00:01:50.325Z,0
2017-02-15T00:02:31.942Z,0
2017-02-15T00:03:13.506Z,0
2017-02-15T00:03:55.111Z,0
2017-02-15T00:04:36.709Z,0
2017-02-15T00:05:18.137Z,0
2017-02-15T00:07:54.230Z,0
2017-02-15T00:08:35.747Z,0
2017-02-15T00:09:17.337Z,0
2017-02-15T00:09:58.835Z,0
2017-02-15T00:10:40.280Z,0
2017-02-15T00:11:21.889Z,0
2017-02-15T00:12:03.471Z,0
2017-02-15T00:12:45.182Z,0
2017-02-15T00:15:16.191Z,0
2017-02-15T00:15:57.766Z,0
2017-02-15T00:16:39.181Z,0
2017-02-15T00:17:20.747Z,0
2017-02-15T00:18:02.227Z,0
2017-02-15T00:18:43.804Z,0
2017-02-15T00:19:25.308Z,0
2017-02-15T00:20:06.815Z,0
2017-02-15T00:20:48.407Z,0
2017-02-15T00:21:29.982Z,0
2017-02-15T00:24:06.061Z,0
2017-02-15T00:24:47.530Z,0
2017-02-15T00:25:28.991Z,0
2017-02-15T00:26:10.423Z,0
2017-02-15T00:26:51.909Z,0
2017-02-15T00:27:33.516Z,0
2017-02-15T00:28:15.129Z,0
2017-02-15T00:28:56.677Z,0
2017-02-15T00:29:38.259Z,0
2017-02-15T00:30:19.851Z,0
2017-02-15T00:31:01.414Z,0
2017-02-15T00:31:42.894Z,0
2017-02-15T00:32:24.585Z,0
2017-02-15T00:33:06.020Z,0
2017-02-15T00:35:42.125Z,0
2017-02-15T00:36:23.841Z,0
2017-02-15T00:37:05.313Z,0
2017-02-15T00:39:41.406Z,0
2017-02-15T00:40:22.913Z,0
2017-02-15T00:41:04.409Z,0
2017-02-15T00:41:45.883Z,0
2017-02-15T00:42:27.430Z,0
2017-02-15T00:43:08.900Z,0
2017-02-15T00:45:29.413Z,0
2017-02-15T00:46:10.913Z,0
2017-02-15T00:46:52.530Z,0
2017-02-15T00:47:34.062Z,0
2017-02-15T00:48:15.590Z,0
2017-02-15T00:48:57.067Z,0
2017-02-15T00:49:38.606Z,0
2017-02-15T00:50:20.084Z,0
2017-02-15T00:51:01.629Z,0
2017-02-15T00:51:43.058Z,0
2017-02-15T00:52:24.684Z,0
2017-02-15T00:53:06.139Z,0
2017-02-15T00:53:47.640Z,0
2017-02-15T00:54:29.144Z,0
2017-02-15T00:55:10.471Z,0
2017-02-15T00:55:51.943Z,0
2017-02-15T00:56:33.518Z,0
2017-02-15T00:57:15.000Z,0
2017-02-15T00:57:56.524Z,0
2017-02-15T00:58:37.998Z,0
2017-02-15T01:01:09.037Z,0
2017-02-15T01:01:50.508Z,0
2017-02-15T01:02:32.074Z,0
2017-02-15T01:03:13.689Z,0
2017-02-15T01:03:55.466Z,0
2017-02-15T01:04:36.943Z,0
2017-02-15T01:08:46.984Z,0
2017-02-15T01:10:46.675Z,0
2017-02-15T01:15:01.966Z,0
2017-02-15T01:15:43.489Z,0
2017-02-15T01:16:24.984Z,0
2017-02-15T01:18:45.497Z,0
2017-02-15T01:19:27.113Z,0
2017-02-15T01:20:08.619Z,0
2017-02-15T01:20:50.032Z,0
2017-02-15T01:21:31.498Z,0
2017-02-15T01:22:12.985Z,0
2017-02-15T01:22:54.439Z,0
2017-02-15T01:23:36.090Z,0
2017-02-15T01:24:17.728Z,0
2017-02-15T01:24:59.279Z,0
2017-02-15T01:27:35.514Z,0
2017-02-15T01:28:17.009Z,0
2017-02-15T01:28:58.493Z,0
2017-02-15T01:29:40.085Z,0
2017-02-15T01:30:21.672Z,0
2017-02-15T01:31:03.316Z,0
2017-02-15T01:33:23.925Z,0
2017-02-15T01:34:05.559Z,0
2017-02-15T01:34:47.121Z,0
2017-02-15T01:35:28.720Z,0
2017-02-15T01:36:10.300Z,0
2017-02-15T01:36:51.876Z,0
2017-02-15T01:37:33.510Z,0
2017-02-15T01:38:14.955Z,0
2017-02-15T01:38:56.403Z,0
2017-02-15T01:39:37.965Z,0
2017-02-15T01:40:19.386Z,0
2017-02-15T01:42:55.493Z,0
2017-02-15T01:43:36.990Z,0
2017-02-15T01:44:18.762Z,0
2017-02-15T01:45:00.287Z,0
2017-02-15T01:45:41.796Z,0
2017-02-15T01:46:23.292Z,0
2017-02-15T01:48:59.599Z,0
2017-02-15T01:49:41.059Z,0
2017-02-15T01:50:22.643Z,0
2017-02-15T01:52:22.585Z,0
2017-02-15T01:54:58.866Z,0
2017-02-15T01:55:39.579Z,0
2017-02-15T01:56:20.914Z,0
2017-02-15T01:57:01.438Z,0
2017-02-15T01:57:41.995Z,0
2017-02-15T01:58:22.508Z,0
2017-02-15T01:59:03.042Z,0
2017-02-15T01:59:44.100Z,0
2017-02-15T02:00:24.642Z,0
2017-02-15T02:01:05.877Z,0
2017-02-15T02:01:47.438Z,0
2017-02-15T02:04:17.479Z,0
2017-02-15T02:04:58.004Z,0
2017-02-15T02:05:38.535Z,0
2017-02-15T02:06:19.064Z,0
2017-02-15T02:06:59.589Z,0
2017-02-15T02:07:40.123Z,0
2017-02-15T02:08:20.657Z,0
2017-02-15T02:09:01.190Z,0
2017-02-15T02:09:41.705Z,0
2017-02-15T02:10:22.231Z,0
2017-02-15T02:11:02.766Z,0
2017-02-15T02:11:43.298Z,0
2017-02-15T02:12:23.829Z,0
2017-02-15T02:13:04.358Z,0
2017-02-15T02:13:44.889Z,0
2017-02-15T02:14:25.424Z,0
2017-02-15T02:15:05.958Z,0
2017-02-15T02:15:46.492Z,0
2017-02-15T02:16:27.021Z,0
2017-02-15T02:17:07.558Z,0
2017-02-15T02:17:48.087Z,0
2017-02-15T02:18:28.628Z,0
2017-02-15T02:19:09.162Z,0
2017-02-15T02:19:49.696Z,0
2017-02-15T02:20:30.233Z,0
2017-02-15T02:21:10.764Z,0
2017-02-15T02:21:51.294Z,0
2017-02-15T02:22:31.830Z,0
2017-02-15T02:23:12.363Z,0
2017-02-15T02:23:52.896Z,0
2017-02-15T02:24:33.418Z,0
2017-02-15T02:25:13.949Z,0
2017-02-15T02:25:54.482Z,0
2017-02-15T02:26:35.013Z,0
2017-02-15T02:27:15.547Z,0
2017-02-15T02:27:56.071Z,0
2017-02-15T02:28:36.597Z,0
2017-02-15T02:29:17.133Z,0
2017-02-15T02:29:57.665Z,0
2017-02-15T02:30:38.201Z,0
2017-02-15T02:31:18.723Z,0
2017-02-15T02:31:59.244Z,0
2017-02-15T02:32:39.777Z,0
2017-02-15T02:33:20.306Z,0
2017-02-15T02:34:00.838Z,0
2017-02-15T02:34:41.368Z,0
2017-02-15T02:35:21.900Z,0
2017-02-15T02:36:02.442Z,0
2017-02-15T02:36:42.970Z,0
2017-02-15T02:37:23.506Z,0
2017-02-15T02:38:04.038Z,0
2017-02-15T02:38:44.561Z,0
2017-02-15T02:39:25.092Z,0
2017-02-15T02:40:05.627Z,0
2017-02-15T02:40:46.157Z,0
2017-02-15T02:41:26.686Z,0
2017-02-15T02:42:07.224Z,0
2017-02-15T02:42:47.752Z,0
2017-02-15T02:43:28.293Z,0
2017-02-15T02:44:08.825Z,0
2017-02-15T02:44:49.358Z,0
2017-02-15T02:45:29.888Z,0
2017-02-15T02:46:10.437Z,0
2017-02-15T02:46:50.981Z,0
2017-02-15T02:47:31.507Z,0
2017-02-15T02:48:12.046Z,0
2017-02-15T02:48:52.575Z,0
2017-02-15T02:49:33.110Z,0
2017-02-15T02:50:13.676Z,0
2017-02-15T02:50:54.202Z,0
2017-02-15T02:51:34.734Z,0
2017-02-15T02:52:15.262Z,0
2017-02-15T02:52:55.799Z,0
2017-02-15T02:53:36.331Z,0
2017-02-15T02:54:16.861Z,0
2017-02-15T02:54:57.389Z,0
2017-02-15T02:55:37.917Z,0
2017-02-15T02:56:18.449Z,0
2017-02-15T02:56:58.984Z,0
2017-02-15T02:57:39.522Z,0
2017-02-15T02:58:20.170Z,0
2017-02-15T02:59:00.699Z,0
2017-02-15T02:59:41.225Z,0
2017-02-15T03:00:21.760Z,0
2017-02-15T03:01:02.290Z,0
2017-02-15T03:01:42.823Z,0
2017-02-15T03:02:23.352Z,0
2017-02-15T03:03:03.877Z,0
2017-02-15T03:03:44.412Z,0
2017-02-15T03:04:24.948Z,0
2017-02-15T03:05:05.485Z,0
2017-02-15T03:05:46.023Z,0
2017-02-15T03:06:26.556Z,0
2017-02-15T03:07:07.078Z,0
2017-02-15T03:07:47.614Z,0
2017-02-15T03:08:28.146Z,0
2017-02-15T03:09:08.675Z,0
2017-02-15T03:09:49.209Z,0
2017-02-15T03:10:29.742Z,0
2017-02-15T03:11:10.274Z,0
2017-02-15T03:11:50.813Z,0
2017-02-15T03:12:31.347Z,0
2017-02-15T03:13:11.880Z,0
2017-02-15T03:13:52.411Z,0
2017-02-15T03:14:32.945Z,0
2017-02-15T03:15:13.475Z,0
2017-02-15T03:15:54.009Z,0
2017-02-15T03:16:34.539Z,0
2017-02-15T03:17:15.063Z,0
2017-02-15T03:17:55.592Z,0
2017-02-15T03:18:36.121Z,0
2017-02-15T03:19:16.648Z,0
2017-02-15T03:19:57.185Z,0
2017-02-15T03:20:37.714Z,0
2017-02-15T03:21:18.242Z,0
2017-02-15T03:21:58.771Z,0
2017-02-15T03:22:39.303Z,0
2017-02-15T03:23:19.834Z,0
2017-02-15T03:24:00.357Z,0
2017-02-15T03:24:40.887Z,0
2017-02-15T03:25:21.421Z,0
2017-02-15T03:26:01.956Z,0
2017-02-15T03:26:42.488Z,0
2017-02-15T03:27:23.020Z,0
2017-02-15T03:28:03.618Z,0
2017-02-15T03:28:44.105Z,0
2017-02-15T03:29:24.634Z,0
2017-02-15T03:30:05.168Z,0
2017-02-15T03:30:45.692Z,0
2017-02-15T03:31:26.223Z,0
2017-02-15T03:32:06.748Z,0
2017-02-15T03:32:47.281Z,0
2017-02-15T03:33:27.809Z,0
2017-02-15T03:34:08.341Z,0
2017-02-15T03:34:48.872Z,0
2017-02-15T03:35:29.401Z,0
2017-02-15T03:36:09.951Z,0
2017-02-15T03:36:50.483Z,0
2017-02-15T03:37:31.014Z,0
2017-02-15T03:38:11.548Z,0
2017-02-15T03:38:52.078Z,0
2017-02-15T03:39:32.613Z,0
2017-02-15T03:40:13.143Z,0
2017-02-15T03:40:53.684Z,0
2017-02-15T03:41:34.217Z,0
2017-02-15T03:42:14.749Z,0
2017-02-15T03:42:55.275Z,0
2017-02-15T03:43:35.805Z,0
2017-02-15T03:44:16.344Z,0
2017-02-15T03:44:56.877Z,0
2017-02-15T03:45:37.401Z,0
2017-02-15T03:46:17.938Z,0
2017-02-15T03:46:58.469Z,0
2017-02-15T03:47:38.998Z,0
2017-02-15T03:48:19.537Z,0
2017-02-15T03:49:00.070Z,0
2017-02-15T03:49:40.603Z,0
2017-02-15T03:50:21.127Z,0
2017-02-15T03:51:01.656Z,0
2017-02-15T03:51:42.189Z,0
2017-02-15T03:52:22.723Z,0
2017-02-15T03:53:03.255Z,0
2017-02-15T03:53:43.786Z,0
2017-02-15T03:54:24.317Z,0
2017-02-15T03:55:04.848Z,0
2017-02-15T03:55:45.380Z,0
2017-02-15T03:56:25.916Z,0
2017-02-15T03:57:06.437Z,0
2017-02-15T03:57:46.971Z,0
2017-02-15T03:58:27.559Z,0
2017-02-15T03:59:08.083Z,0
2017-02-15T03:59:48.609Z,0
2017-02-15T04:00:29.148Z,0
2017-02-15T04:01:09.677Z,0
2017-02-15T04:01:50.216Z,0
2017-02-15T04:02:30.730Z,0
2017-02-15T04:03:11.254Z,0
2017-02-15T04:03:51.778Z,0
2017-02-15T04:04:32.296Z,0
2017-02-15T04:05:12.828Z,0
2017-02-15T04:05:53.361Z,0
2017-02-15T04:06:33.899Z,0
2017-02-15T04:07:14.429Z,0
2017-02-15T04:07:54.960Z,0
2017-02-15T04:08:35.484Z,0
2017-02-15T04:09:16.009Z,0
2017-02-15T04:09:56.543Z,0
2017-02-15T04:10:37.080Z,0
2017-02-15T04:11:17.602Z,0
2017-02-15T04:11:58.136Z,0
2017-02-15T04:12:38.662Z,0
2017-02-15T04:13:19.196Z,0
2017-02-15T04:13:59.723Z,0
2017-02-15T04:14:40.249Z,0
2017-02-15T04:15:20.780Z,0
2017-02-15T04:16:01.308Z,0
2017-02-15T04:16:41.839Z,0
2017-02-15T04:17:22.371Z,0
2017-02-15T04:18:02.915Z,0
2017-02-15T04:18:43.450Z,0
2017-02-15T04:19:23.978Z,0
2017-02-15T04:20:04.511Z,0
2017-02-15T04:20:45.062Z,0
2017-02-15T04:21:25.594Z,0
2017-02-15T04:22:06.126Z,0
2017-02-15T04:22:46.658Z,0
2017-02-15T04:23:27.184Z,0
2017-02-15T04:24:07.710Z,0
2017-02-15T04:24:48.245Z,0
2017-02-15T04:25:28.774Z,0
2017-02-15T04:26:09.298Z,0
2017-02-15T04:26:49.825Z,0
2017-02-15T04:27:30.365Z,0
2017-02-15T04:28:10.899Z,0
2017-02-15T04:28:51.429Z,0
2017-02-15T04:29:32.025Z,0
2017-02-15T04:30:12.569Z,0
2017-02-15T04:30:53.099Z,0
2017-02-15T04:31:33.627Z,0
2017-02-15T04:32:14.151Z,0
2017-02-15T04:32:54.676Z,0
2017-02-15T04:33:35.209Z,0
2017-02-15T04:34:15.780Z,0
2017-02-15T04:34:56.320Z,0
2017-02-15T04:35:36.847Z,0
2017-02-15T04:36:17.381Z,0
2017-02-15T04:36:57.916Z,0
2017-02-15T04:37:38.443Z,0
2017-02-15T04:38:18.976Z,0
2017-02-15T04:38:59.505Z,0
2017-02-15T04:39:40.034Z,0
2017-02-15T04:40:20.672Z,0
2017-02-15T04:41:01.210Z,0
2017-02-15T04:41:41.748Z,0
2017-02-15T04:42:22.279Z,0
2017-02-15T04:43:02.811Z,0
2017-02-15T04:43:43.342Z,0
2017-02-15T04:44:23.870Z,0
2017-02-15T04:45:04.408Z,0
2017-02-15T04:45:44.938Z,0
2017-02-15T04:46:25.479Z,0
2017-02-15T04:47:06.003Z,0
2017-02-15T04:47:46.536Z,0
2017-02-15T04:48:27.109Z,0
2017-02-15T04:49:07.637Z,0
2017-02-15T04:49:48.168Z,0
2017-02-15T04:50:28.701Z,0
2017-02-15T04:51:09.236Z,0
2017-02-15T04:51:49.766Z,0
2017-02-15T04:52:30.299Z,0
2017-02-15T04:53:10.844Z,0
2017-02-15T04:53:51.370Z,0
2017-02-15T04:54:31.903Z,0
2017-02-15T04:55:12.436Z,0
2017-02-15T04:55:52.971Z,0
2017-02-15T04:56:33.504Z,0
2017-02-15T04:57:14.032Z,0
2017-02-15T04:57:54.558Z,0
2017-02-15T04:58:35.093Z,0
2017-02-15T04:59:15.623Z,0
2017-02-15T04:59:56.155Z,0
2017-02-15T05:00:36.689Z,0
2017-02-15T05:01:17.202Z,0
2017-02-15T05:01:57.745Z,0
2017-02-15T05:02:38.282Z,0
2017-02-15T05:03:18.815Z,0
2017-02-15T05:03:59.353Z,0
2017-02-15T05:04:39.885Z,0
2017-02-15T05:05:20.416Z,0
2017-02-15T05:06:00.946Z,0
2017-02-15T05:06:41.499Z,0
2017-02-15T05:07:22.013Z,0
2017-02-15T05:08:02.552Z,0
2017-02-15T05:08:43.089Z,0
2017-02-15T05:09:23.617Z,0
2017-02-15T05:10:04.154Z,0
2017-02-15T05:10:44.690Z,0
2017-02-15T05:11:25.216Z,0
2017-02-15T05:12:05.761Z,0
2017-02-15T05:12:46.294Z,0
2017-02-15T05:13:26.823Z,0
2017-02-15T05:14:07.354Z,0
2017-02-15T05:14:47.889Z,0
2017-02-15T05:15:28.416Z,0
2017-02-15T05:16:08.950Z,0
2017-02-15T05:16:49.481Z,0
2017-02-15T05:17:30.013Z,0
2017-02-15T05:18:10.553Z,0
2017-02-15T05:18:51.077Z,0
2017-02-15T05:19:31.617Z,0
2017-02-15T05:20:12.147Z,0
2017-02-15T05:20:52.681Z,0
2017-02-15T05:21:33.214Z,0
2017-02-15T05:22:13.755Z,0
2017-02-15T05:22:54.288Z,0
2017-02-15T05:23:34.819Z,0
2017-02-15T05:24:15.375Z,0
2017-02-15T05:24:55.886Z,0
2017-02-15T05:25:36.419Z,0
2017-02-15T05:26:16.958Z,0
2017-02-15T05:26:57.486Z,0
2017-02-15T05:27:38.009Z,0
2017-02-15T05:28:18.539Z,0
2017-02-15T05:28:59.075Z,0
2017-02-15T05:29:39.610Z,0
2017-02-15T05:30:20.142Z,0
2017-02-15T05:31:00.663Z,0
2017-02-15T05:31:41.206Z,0
2017-02-15T05:32:21.738Z,0
2017-02-15T05:33:02.274Z,0
2017-02-15T05:33:42.811Z,0
2017-02-15T05:34:23.346Z,0
2017-02-15T05:35:03.867Z,0
2017-02-15T05:35:44.397Z,0
2017-02-15T05:36:24.928Z,0
2017-02-15T05:37:05.464Z,0
2017-02-15T05:37:46.001Z,0
2017-02-15T05:38:26.540Z,0
2017-02-15T05:39:07.079Z,0
2017-02-15T05:39:47.610Z,0
2017-02-15T05:40:28.140Z,0
2017-02-15T05:41:08.674Z,0
2017-02-15T05:41:49.209Z,0
2017-02-15T05:42:29.745Z,0
2017-02-15T05:43:10.281Z,0
2017-02-15T05:43:50.812Z,0
2017-02-15T05:44:31.336Z,0
2017-02-15T05:45:11.870Z,0
2017-02-15T05:45:52.400Z,0
2017-02-15T05:46:32.935Z,0
2017-02-15T05:47:13.477Z,0
2017-02-15T05:47:54.007Z,0
2017-02-15T05:48:34.547Z,0
2017-02-15T05:49:15.097Z,0
2017-02-15T05:49:55.633Z,0
2017-02-15T05:50:36.175Z,0
2017-02-15T05:51:16.705Z,0
2017-02-15T05:51:57.242Z,0
2017-02-15T05:52:37.780Z,0
2017-02-15T05:53:18.312Z,0
2017-02-15T05:53:58.844Z,0
2017-02-15T05:54:39.371Z,0
2017-02-15T05:55:19.905Z,0
2017-02-15T05:56:00.441Z,0
2017-02-15T05:56:40.958Z,0
2017-02-15T05:57:21.499Z,0
2017-02-15T05:58:02.033Z,0
2017-02-15T05:58:42.567Z,0
2017-02-15T05:59:23.096Z,0
2017-02-15T06:00:03.626Z,0
2017-02-15T06:00:44.163Z,0
2017-02-15T06:01:24.691Z,0
2017-02-15T06:02:05.231Z,0
2017-02-15T06:02:45.755Z,0
2017-02-15T06:03:26.292Z,0
2017-02-15T06:04:06.827Z,0
2017-02-15T06:04:47.354Z,0
2017-02-15T06:05:27.891Z,0
2017-02-15T06:06:08.429Z,0
2017-02-15T06:06:48.961Z,0
2017-02-15T06:07:29.496Z,0
2017-02-15T06:08:10.078Z,0
2017-02-15T06:08:50.587Z,0
2017-02-15T06:09:31.123Z,0
2017-02-15T06:10:11.647Z,0
2017-02-15T06:10:52.169Z,0
2017-02-15T06:11:32.703Z,0
2017-02-15T06:12:13.235Z,0
2017-02-15T06:12:53.764Z,4
2017-02-15T06:13:34.297Z,4
2017-02-15T06:14:14.824Z,4
2017-02-15T06:14:55.398Z,0
2017-02-15T06:15:35.940Z,0
2017-02-15T06:16:16.470Z,4
2017-02-15T06:16:57.005Z,4
2017-02-15T06:17:37.520Z,4
2017-02-15T06:18:18.054Z,0
2017-02-15T06:18:58.593Z,4
2017-02-15T06:19:39.125Z,4
2017-02-15T06:20:19.690Z,4
2017-02-15T06:21:00.232Z,4
2017-02-15T06:21:40.763Z,4
2017-02-15T06:22:21.298Z,8
2017-02-15T06:23:01.832Z,4
2017-02-15T06:23:42.360Z,8
2017-02-15T06:24:22.897Z,8
2017-02-15T06:25:03.431Z,12
2017-02-15T06:25:43.962Z,8
2017-02-15T06:26:24.494Z,8
2017-02-15T06:27:05.031Z,16
2017-02-15T06:27:45.559Z,16
2017-02-15T06:28:26.100Z,16
2017-02-15T06:29:06.617Z,16
2017-02-15T06:29:47.146Z,20
2017-02-15T06:30:27.683Z,20
2017-02-15T06:31:08.213Z,24
2017-02-15T06:31:48.739Z,24
2017-02-15T06:32:29.272Z,28
2017-02-15T06:33:09.815Z,32
2017-02-15T06:33:50.341Z,32
2017-02-15T06:34:30.871Z,36
2017-02-15T06:35:11.407Z,40
2017-02-15T06:35:51.938Z,40
2017-02-15T06:36:32.458Z,44
2017-02-15T06:37:12.978Z,48
2017-02-15T06:37:53.513Z,52
2017-02-15T06:38:34.026Z,56
2017-02-15T06:39:14.558Z,60
2017-02-15T06:39:55.088Z,64
2017-02-15T06:40:35.616Z,68
2017-02-15T06:41:16.149Z,76
2017-02-15T06:41:56.674Z,76
2017-02-15T06:42:37.208Z,84
2017-02-15T06:43:17.731Z,88
2017-02-15T06:43:58.263Z,92
2017-02-15T06:44:38.798Z,96
2017-02-15T06:45:19.328Z,104
2017-02-15T06:45:59.863Z,112
2017-02-15T06:46:40.406Z,116
2017-02-15T06:47:20.934Z,124
2017-02-15T06:48:01.465Z,128
2017-02-15T06:48:41.996Z,136
2017-02-15T06:49:22.529Z,144
2017-02-15T06:50:03.061Z,152
2017-02-15T06:50:43.591Z,160
2017-02-15T06:51:24.123Z,168
2017-02-15T06:52:04.663Z,176
2017-02-15T06:52:45.198Z,184
2017-02-15T06:53:25.729Z,192
2017-02-15T06:54:06.266Z,200
2017-02-15T06:54:46.800Z,208
2017-02-15T06:55:27.327Z,216
2017-02-15T06:56:07.868Z,228
2017-02-15T06:56:48.398Z,236
2017-02-15T06:57:28.933Z,248
2017-02-15T06:58:09.463Z,256
2017-02-15T06:58:49.995Z,264
2017-02-15T06:59:30.526Z,276
2017-02-15T07:00:11.063Z,284
2017-02-15T07:00:51.586Z,296
2017-02-15T07:01:32.121Z,304
2017-02-15T07:02:12.654Z,316
2017-02-15T07:02:53.184Z,328
2017-02-15T07:03:33.725Z,336
2017-02-15T07:04:14.257Z,348
2017-02-15T07:04:54.789Z,356
2017-02-15T07:05:35.319Z,368
2017-02-15T07:06:15.857Z,376
2017-02-15T07:06:56.381Z,388
2017-02-15T07:07:36.917Z,400
2017-02-15T07:08:17.441Z,412
2017-02-15T07:08:57.972Z,424
2017-02-15T07:09:38.505Z,436
2017-02-15T07:10:19.035Z,448
2017-02-15T07:10:59.561Z,460
2017-02-15T07:11:40.093Z,468
2017-02-15T07:12:20.649Z,484
2017-02-15T07:13:01.154Z,496
2017-02-15T07:13:41.687Z,508
2017-02-15T07:14:22.228Z,520
2017-02-15T07:15:02.762Z,532
2017-02-15T07:15:43.296Z,544
2017-02-15T07:16:23.852Z,556
2017-02-15T07:17:04.355Z,568
2017-02-15T07:17:44.893Z,580
2017-02-15T07:18:25.435Z,592
2017-02-15T07:19:05.965Z,604
2017-02-15T07:19:46.497Z,616
2017-02-15T07:20:27.028Z,628
2017-02-15T07:21:07.561Z,640
2017-02-15T07:21:48.095Z,652
2017-02-15T07:22:28.634Z,668
2017-02-15T07:23:09.165Z,680
2017-02-15T07:23:49.697Z,688
2017-02-15T07:24:30.230Z,704
2017-02-15T07:25:10.757Z,712
2017-02-15T07:25:51.287Z,724
2017-02-15T07:26:31.822Z,740
2017-02-15T07:27:12.351Z,748
2017-02-15T07:27:52.875Z,764
2017-02-15T07:28:33.401Z,780
2017-02-15T07:29:13.938Z,788
2017-02-15T07:29:54.471Z,804
2017-02-15T07:30:34.987Z,816
2017-02-15T07:31:15.522Z,828
2017-02-15T07:31:56.057Z,840
2017-02-15T07:32:36.590Z,852
2017-02-15T07:33:17.124Z,868
2017-02-15T07:33:57.654Z,880
2017-02-15T07:34:38.187Z,892
2017-02-15T07:35:18.702Z,904
2017-02-15T07:35:59.256Z,916
2017-02-15T07:36:39.793Z,928
2017-02-15T07:37:20.331Z,940
2017-02-15T07:38:00.859Z,952
2017-02-15T07:38:41.393Z,968
2017-02-15T07:39:21.930Z,984
2017-02-15T07:40:02.458Z,996
2017-02-15T07:40:42.999Z,1008
2017-02-15T07:41:23.535Z,1024
2017-02-15T07:42:04.075Z,1032
2017-02-15T07:42:44.608Z,1044
2017-02-15T07:43:25.181Z,1056
2017-02-15T07:44:05.729Z,1068
2017-02-15T07:44:46.266Z,1080
2017-02-15T07:45:26.797Z,1088
2017-02-15T07:46:07.327Z,1104
2017-02-15T07:46:47.860Z,1120
2017-02-15T07:47:28.392Z,1132
2017-02-15T07:48:08.920Z,1144
2017-02-15T07:48:49.449Z,1160
2017-02-15T07:49:29.980Z,1172
2017-02-15T07:50:10.511Z,1184
2017-02-15T07:50:51.037Z,1196
2017-02-15T07:51:31.562Z,1212
2017-02-15T07:52:12.102Z,1228
2017-02-15T07:52:52.627Z,1244
2017-02-15T07:53:33.158Z,1256
2017-02-15T07:54:13.687Z,1268
2017-02-15T07:54:54.221Z,1280
2017-02-15T07:55:34.754Z,1292
2017-02-15T07:56:15.287Z,1304
2017-02-15T07:56:55.818Z,1316
2017-02-15T07:57:36.357Z,1328
2017-02-15T07:58:16.890Z,1340
2017-02-15T07:58:57.424Z,1356
2017-02-15T07:59:37.959Z,1368
2017-02-15T08:00:18.494Z,1388
2017-02-15T08:00:59.024Z,1396
2017-02-15T08:01:39.561Z,1416
2017-02-15T08:02:20.096Z,1428
2017-02-15T08:03:00.626Z,1444
2017-02-15T08:03:41.156Z,1456
2017-02-15T08:04:21.688Z,1480
2017-02-15T08:05:02.220Z,1492
2017-02-15T08:05:42.762Z,1508
2017-02-15T08:06:23.298Z,1524
2017-02-15T08:07:03.829Z,1536
2017-02-15T08:07:44.365Z,1548
2017-02-15T08:08:24.887Z,1560
2017-02-15T08:09:05.419Z,1568
2017-02-15T08:09:45.951Z,1584
2017-02-15T08:10:26.481Z,1596
2017-02-15T08:11:07.011Z,1612
2017-02-15T08:11:47.544Z,1616
2017-02-15T08:12:28.113Z,1624
2017-02-15T08:13:08.648Z,1644
2017-02-15T08:13:49.180Z,1680
2017-02-15T08:14:29.722Z,1724
2017-02-15T08:15:10.252Z,1760
2017-02-15T08:15:50.784Z,1776
2017-02-15T08:16:31.320Z,1800
2017-02-15T08:17:11.844Z,1836
2017-02-15T08:17:52.375Z,1960
2017-02-15T08:18:32.907Z,2112
2017-02-15T08:19:13.438Z,2160
2017-02-15T08:19:53.968Z,2076
2017-02-15T08:20:34.505Z,1980
2017-02-15T08:21:15.037Z,1972
2017-02-15T08:21:55.574Z,1968
2017-02-15T08:22:36.106Z,1992
2017-02-15T08:23:16.638Z,2000
2017-02-15T08:23:57.159Z,2016
2017-02-15T08:24:37.688Z,2032
2017-02-15T08:25:18.229Z,2056
2017-02-15T08:25:58.757Z,2072
2017-02-15T08:26:39.294Z,2168
2017-02-15T08:27:19.823Z,2464
2017-02-15T08:28:00.361Z,2520
2017-02-15T08:28:40.891Z,2480
2017-02-15T08:29:21.428Z,2412
2017-02-15T08:30:01.960Z,2352
2017-02-15T08:30:42.493Z,2248
2017-02-15T08:31:23.023Z,2176
2017-02-15T08:32:03.556Z,2188
2017-02-15T08:32:44.091Z,2204
2017-02-15T08:33:24.630Z,2228
2017-02-15T08:34:05.156Z,2240
2017-02-15T08:34:45.677Z,2256
2017-02-15T08:35:26.207Z,2280
2017-02-15T08:36:06.739Z,2312
2017-02-15T08:36:47.275Z,2320
2017-02-15T08:37:27.812Z,2328
2017-02-15T08:38:08.345Z,2336
2017-02-15T08:38:48.881Z,2348
2017-02-15T08:39:29.415Z,2368
2017-02-15T08:40:09.946Z,2384
2017-02-15T08:40:50.513Z,2436
2017-02-15T08:41:31.046Z,2456
2017-02-15T08:42:11.589Z,2728
2017-02-15T08:42:52.117Z,4044
2017-02-15T08:43:32.644Z,5656
2017-02-15T08:44:13.183Z,6224
2017-02-15T08:44:53.723Z,5512
2017-02-15T08:45:34.255Z,4008
2017-02-15T08:46:14.791Z,3032
2017-02-15T08:46:55.323Z,2572
2017-02-15T08:47:35.851Z,2588
2017-02-15T08:48:16.386Z,2608
2017-02-15T08:48:56.923Z,2740
2017-02-15T08:49:37.455Z,3228
2017-02-15T08:50:17.995Z,3588
2017-02-15T08:50:58.547Z,3348
2017-02-15T08:51:39.056Z,3676
2017-02-15T08:52:19.588Z,3612
2017-02-15T08:53:00.120Z,3256
2017-02-15T08:53:40.654Z,2952
2017-02-15T08:54:21.190Z,2896
2017-02-15T08:55:01.723Z,2848
2017-02-15T08:55:42.260Z,2812
2017-02-15T08:56:22.792Z,2848
2017-02-15T08:57:03.323Z,3456
2017-02-15T08:57:43.858Z,5532
2017-02-15T08:58:24.400Z,7688
2017-02-15T08:59:04.930Z,8956
2017-02-15T08:59:45.464Z,9192
2017-02-15T09:00:25.995Z,9656
2017-02-15T09:01:06.535Z,9852
2017-02-15T09:01:47.068Z,9528
2017-02-15T09:02:27.610Z,9060
2017-02-15T09:03:08.140Z,8104
2017-02-15T09:03:48.668Z,6464
2017-02-15T09:04:29.209Z,5168
2017-02-15T09:05:09.737Z,4888
2017-02-15T09:05:50.268Z,4992
2017-02-15T09:06:30.803Z,5072
2017-02-15T09:07:11.340Z,5316
2017-02-15T09:07:51.871Z,5824
2017-02-15T09:08:32.411Z,6780
2017-02-15T09:09:12.942Z,7024
2017-02-15T09:09:53.477Z,7320
2017-02-15T09:10:35.757Z,7792
2017-02-15T09:11:16.300Z,7544
2017-02-15T09:11:56.835Z,7364
2017-02-15T09:12:37.364Z,6240
2017-02-15T09:13:17.898Z,5424
2017-02-15T09:13:58.430Z,5212
2017-02-15T09:14:38.963Z,5368
2017-02-15T09:15:19.504Z,5424
2017-02-15T09:16:00.038Z,4992
2017-02-15T09:16:40.571Z,4352
2017-02-15T09:17:21.110Z,4416
2017-02-15T09:18:01.640Z,6008
2017-02-15T09:18:42.178Z,9344
2017-02-15T09:19:22.707Z,14640
2017-02-15T09:20:03.242Z,19424
2017-02-15T09:20:43.804Z,22144
2017-02-15T09:21:24.320Z,22112
2017-02-15T09:22:04.851Z,21600
2017-02-15T09:22:45.386Z,21632
2017-02-15T09:23:25.915Z,21824
2017-02-15T09:24:06.456Z,22368
2017-02-15T09:24:46.995Z,23296
2017-02-15T09:25:27.534Z,23520
2017-02-15T09:26:08.074Z,23456
2017-02-15T09:26:48.606Z,23648
2017-02-15T09:27:29.146Z,23296
2017-02-15T09:28:09.676Z,23360
2017-02-15T09:28:50.218Z,23456
2017-02-15T09:29:30.767Z,23488
2017-02-15T09:30:11.303Z,23936
2017-02-15T09:30:51.832Z,24224
2017-02-15T09:31:32.374Z,24640
2017-02-15T09:32:12.908Z,25184
2017-02-15T09:32:53.446Z,25312
2017-02-15T09:33:33.980Z,25344
2017-02-15T09:34:14.510Z,25536
2017-02-15T09:34:55.055Z,25824
2017-02-15T09:35:35.593Z,25984
2017-02-15T09:36:16.130Z,25952
2017-02-15T09:36:56.664Z,26336
2017-02-15T09:37:37.202Z,26592
2017-02-15T09:38:17.741Z,26528
2017-02-15T09:38:58.282Z,26656
2017-02-15T09:39:38.820Z,26976
2017-02-15T09:40:19.358Z,26720
2017-02-15T09:40:59.899Z,26496
2017-02-15T09:41:40.434Z,26624
2017-02-15T09:42:20.973Z,26848
2017-02-15T09:43:01.507Z,27264
2017-02-15T09:43:42.040Z,27264
2017-02-15T09:44:22.579Z,27200
2017-02-15T09:45:03.124Z,27680
2017-02-15T09:45:43.662Z,27904
2017-02-15T09:46:24.198Z,27936
2017-02-15T09:47:04.742Z,28256
2017-02-15T09:47:45.282Z,28064
2017-02-15T09:48:25.820Z,28256
2017-02-15T09:49:06.363Z,28992
2017-02-15T09:49:46.898Z,29568
2017-02-15T09:50:27.428Z,28928
2017-02-15T09:51:07.962Z,29152
2017-02-15T09:51:48.508Z,29760
2017-02-15T09:52:29.044Z,29120
2017-02-15T09:53:09.584Z,28384
2017-02-15T09:53:50.119Z,28320
2017-02-15T09:54:30.653Z,28256
2017-02-15T09:55:11.263Z,28480
2017-02-15T09:55:51.799Z,29088
2017-02-15T09:56:32.333Z,29568
2017-02-15T09:57:12.873Z,29536
2017-02-15T09:57:53.407Z,30208
2017-02-15T09:58:33.943Z,30080
2017-02-15T09:59:14.488Z,30336
2017-02-15T09:59:55.030Z,30112
2017-02-15T10:00:35.559Z,29696
2017-02-15T10:01:16.103Z,29696
2017-02-15T10:01:56.641Z,30304
2017-02-15T10:02:37.206Z,29248
2017-02-15T10:03:17.737Z,28704
2017-02-15T10:03:58.287Z,29792
2017-02-15T10:04:38.822Z,29792
2017-02-15T10:05:19.357Z,29984
2017-02-15T10:05:59.898Z,30752
2017-02-15T10:06:40.444Z,31136
2017-02-15T10:07:20.988Z,31264
2017-02-15T10:08:01.523Z,31488
2017-02-15T10:08:42.040Z,31488
2017-02-15T10:09:22.581Z,31872
2017-02-15T10:10:03.119Z,32128
2017-02-15T10:10:43.654Z,31552
2017-02-15T10:11:24.197Z,32096
2017-02-15T10:12:04.735Z,33152
2017-02-15T10:12:45.276Z,33536